Time;durP1;ratioP1;P1;durP2;ratioP2;P2;SDS_P1;SDS_P2;PMS_P1;PMS_P2;Temp;Humidity;BMP_temperature;BMP_pressure;BME280_temperature;BME280_humidity;BME280_pressure;Samples;Min_cycle;Max_cycle;Signal;HPM_P1;HPM_P2
2023/07/05 00:00:33;;;;;;;8.60;2.95;;;15.90;99.90;;;;;;4965056;28;20551;-36
2023/07/05 00:02:59;;;;;;;4.20;2.45;;;15.90;99.90;;;;;;4964103;28;20542;-36
2023/07/05 00:05:25;;;;;;;5.85;2.85;;;15.90;99.90;;;;;;4968227;28;20500;-36
2023/07/05 00:07:52;;;;;;;7.43;2.05;;;15.90;99.90;;;;;;4954021;28;20047;-36
2023/07/05 00:10:18;;;;;;;5.75;2.22;;;15.90;99.90;;;;;;4969946;28;20526;-36
2023/07/05 00:12:44;;;;;;;5.20;2.25;;;15.90;99.90;;;;;;4964773;28;20222;-37
2023/07/05 00:15:10;;;;;;;5.78;2.17;;;15.90;99.90;;;;;;4966724;28;20059;-37
2023/07/05 00:17:36;;;;;;;5.28;2.40;;;15.90;99.90;;;;;;4964041;28;20054;-37
2023/07/05 00:20:04;;;;;;;4.63;1.95;;;15.90;99.90;;;;;;4968466;28;20121;-37
2023/07/05 00:22:30;;;;;;;7.07;2.78;;;15.90;99.90;;;;;;4979346;28;20058;-37
2023/07/05 00:24:56;;;;;;;7.32;2.63;;;15.90;99.90;;;;;;4962191;28;20054;-37
2023/07/05 00:27:22;;;;;;;8.43;2.58;;;15.90;99.90;;;;;;4977623;28;20058;-36
2023/07/05 00:29:49;;;;;;;8.68;3.85;;;15.90;99.90;;;;;;4966903;28;20070;-36
2023/07/05 00:32:15;;;;;;;7.03;3.78;;;15.90;99.90;;;;;;4985003;28;20073;-36
2023/07/05 00:34:41;;;;;;;7.22;2.92;;;15.90;99.90;;;;;;4981473;28;20046;-37
2023/07/05 00:37:07;;;;;;;9.35;3.15;;;15.90;99.90;;;;;;4966281;28;20401;-36
2023/07/05 00:39:33;;;;;;;5.88;2.95;;;15.90;99.90;;;;;;4967264;28;20061;-36
2023/07/05 00:41:58;;;;;;;5.07;3.13;;;15.90;99.90;;;;;;4967247;28;20059;-36
2023/07/05 00:44:26;;;;;;;5.78;2.60;;;15.90;99.90;;;;;;4963681;28;20047;-36
2023/07/05 00:46:59;;;;;;;8.30;3.20;;;15.90;99.90;;;;;;4964177;28;20187;-36
2023/07/05 00:49:26;;;;;;;;;;;15.90;99.90;;;;;;4984496;28;20510;-37
2023/07/05 00:51:57;;;;;;;5.07;2.83;;;15.90;99.90;;;;;;4974736;28;19922;-36
2023/07/05 00:54:27;;;;;;;7.20;3.45;;;15.90;99.90;;;;;;4966467;28;20101;-36
2023/07/05 00:56:59;;;;;;;9.00;4.05;;;15.80;99.90;;;;;;4966863;28;20047;-37
2023/07/05 00:59:30;;;;;;;6.90;3.88;;;15.80;99.90;;;;;;4966198;28;20050;-36
2023/07/05 01:01:56;;;;;;;8.95;3.40;;;15.70;99.90;;;;;;4966531;28;20046;-37
2023/07/05 01:04:22;;;;;;;10.98;5.15;;;15.70;99.90;;;;;;4962478;28;20121;-37
2023/07/05 01:06:48;;;;;;;9.00;4.90;;;15.60;99.90;;;;;;4964872;28;20081;-36
2023/07/05 01:09:14;;;;;;;12.88;4.70;;;15.60;99.90;;;;;;4984277;28;20065;-36
2023/07/05 01:12:04;;;;;;;6.57;3.53;;;15.50;99.90;;;;;;4969983;28;20405;-37
2023/07/05 01:15:02;;;;;;;8.77;3.97;;;15.60;99.90;;;;;;4974439;28;20050;-36
2023/07/05 01:17:42;;;;;;;9.13;4.78;;;15.50;99.90;;;;;;4968855;28;20524;-37
2023/07/05 01:20:10;;;;;;;7.85;4.28;;;15.40;99.90;;;;;;4986243;28;20122;-36
2023/07/05 01:22:48;;;;;;;7.43;4.20;;;15.40;99.90;;;;;;4965325;28;20480;-36
2023/07/05 01:25:52;;;;;;;6.88;3.85;;;15.40;99.90;;;;;;4965478;28;20057;-36
2023/07/05 01:28:45;;;;;;;9.07;4.20;;;15.40;99.90;;;;;;4964397;28;20054;-36
2023/07/05 01:31:19;;;;;;;8.23;4.65;;;15.40;99.90;;;;;;4968551;28;20138;-37
2023/07/05 01:33:58;;;;;;;9.30;4.53;;;15.40;99.90;;;;;;4963947;28;20520;-36
2023/07/05 01:36:24;;;;;;;10.45;4.40;;;15.40;99.90;;;;;;4964252;28;20043;-36
2023/07/05 01:38:50;;;;;;;9.60;5.45;;;15.30;99.90;;;;;;4962343;28;20055;-36
2023/07/05 01:41:15;;;;;;;9.63;4.38;;;15.30;99.90;;;;;;4971642;28;20190;-36
2023/07/05 01:43:43;;;;;;;8.18;3.85;;;15.30;99.90;;;;;;4975623;28;20605;-37
2023/07/05 01:46:27;;;;;;;7.57;4.00;;;15.30;99.90;;;;;;4982686;28;20080;-36
2023/07/05 01:48:59;;;;;;;8.82;4.65;;;15.30;99.90;;;;;;4983620;28;20086;-37
2023/07/05 01:51:55;;;;;;;11.85;4.45;;;15.30;99.90;;;;;;4981892;28;20047;-36
2023/07/05 01:54:32;;;;;;;16.83;4.80;;;15.30;99.90;;;;;;4965647;28;20509;-37
2023/07/05 01:57:01;;;;;;;11.80;4.60;;;15.30;99.90;;;;;;4967178;28;20122;-36
2023/07/05 01:59:31;;;;;;;7.57;4.57;;;15.20;99.90;;;;;;4961666;28;20504;-36
2023/07/05 02:01:59;;;;;;;10.07;5.00;;;15.20;99.90;;;;;;4979079;28;20050;-37
2023/07/05 02:04:26;;;;;;;9.60;4.90;;;15.20;99.90;;;;;;4978189;28;20050;-36
2023/07/05 02:06:53;;;;;;;8.63;4.40;;;15.20;99.90;;;;;;4974017;28;20579;-37
2023/07/05 02:09:19;;;;;;;12.18;4.63;;;15.10;99.90;;;;;;4981678;28;20050;-37
2023/07/05 02:11:44;;;;;;;10.23;5.38;;;15.10;99.90;;;;;;4980998;28;20078;-37
2023/07/05 02:14:11;;;;;;;9.38;5.40;;;15.10;99.90;;;;;;4967358;28;20085;-37
2023/07/05 02:16:39;;;;;;;9.63;5.05;;;15.10;99.90;;;;;;4964180;28;20098;-37
2023/07/05 02:19:06;;;;;;;9.07;5.05;;;15.10;99.90;;;;;;4964490;28;20130;-37
2023/07/05 02:21:32;;;;;;;11.10;5.38;;;15.10;99.90;;;;;;4960954;28;20051;-36
2023/07/05 02:23:58;;;;;;;8.10;4.90;;;15.10;99.90;;;;;;4958236;28;20045;-37
2023/07/05 02:26:23;;;;;;;12.20;4.88;;;15.10;99.90;;;;;;4970816;28;20447;-35
2023/07/05 02:28:49;;;;;;;13.00;5.15;;;15.10;99.90;;;;;;4979119;28;20602;-36
2023/07/05 02:31:15;;;;;;;10.05;5.47;;;15.10;99.90;;;;;;4964896;28;20043;-37
2023/07/05 02:33:44;;;;;;;10.50;5.15;;;15.10;99.90;;;;;;4964983;28;20060;-36
2023/07/05 02:36:11;;;;;;;11.02;5.80;;;15.10;99.90;;;;;;4966286;28;20066;-36
2023/07/05 02:38:38;;;;;;;9.90;5.45;;;15.00;99.90;;;;;;4963734;28;20055;-36
2023/07/05 02:41:04;;;;;;;10.73;5.25;;;15.10;99.90;;;;;;4965592;28;20500;-36
2023/07/05 02:43:30;;;;;;;12.60;5.72;;;15.00;99.90;;;;;;4958162;28;20054;-37
2023/07/05 02:45:55;;;;;;;8.60;5.43;;;15.00;99.90;;;;;;4946566;28;20055;-37
2023/07/05 02:48:21;;;;;;;9.45;5.50;;;15.00;99.90;;;;;;4961436;28;20070;-36
2023/07/05 02:50:47;;;;;;;13.07;5.68;;;15.10;99.90;;;;;;4963657;28;20055;-36
2023/07/05 02:53:12;;;;;;;12.35;5.35;;;15.10;99.90;;;;;;4964109;28;20412;-36
2023/07/05 02:55:38;;;;;;;12.00;5.97;;;15.10;99.90;;;;;;4958928;28;20063;-39
2023/07/05 02:58:04;;;;;;;8.65;5.65;;;15.10;99.90;;;;;;4959411;28;20054;-36
2023/07/05 03:00:30;;;;;;;9.40;5.10;;;15.10;99.90;;;;;;4962953;28;20046;-38
2023/07/05 03:02:57;;;;;;;9.63;5.50;;;15.10;99.90;;;;;;4962060;28;20050;-37
2023/07/05 03:05:23;;;;;;;9.60;5.32;;;15.10;99.90;;;;;;4958938;28;20105;-37
2023/07/05 03:07:49;;;;;;;10.90;5.97;;;15.10;99.90;;;;;;4946445;28;20047;-37
2023/07/05 03:10:14;;;;;;;12.48;5.90;;;15.10;99.90;;;;;;4965135;28;20057;-37
2023/07/05 03:12:40;;;;;;;9.50;5.32;;;15.10;99.90;;;;;;4958926;28;20201;-37
2023/07/05 03:15:07;;;;;;;11.98;4.75;;;15.20;99.90;;;;;;4967375;28;20061;-36
2023/07/05 03:17:33;;;;;;;10.52;6.03;;;15.20;99.90;;;;;;4964723;28;20129;-36
2023/07/05 03:19:59;;;;;;;9.75;5.60;;;15.20;99.90;;;;;;4967024;28;20639;-36
2023/07/05 03:22:26;;;;;;;9.32;5.45;;;15.20;99.90;;;;;;4966716;28;20137;-37
2023/07/05 03:24:52;;;;;;;12.13;6.20;;;15.20;99.90;;;;;;4969344;28;20047;-36
2023/07/05 03:27:18;;;;;;;11.27;5.88;;;15.20;99.90;;;;;;4967900;28;20058;-37
2023/07/05 03:29:44;;;;;;;12.18;5.40;;;15.20;99.90;;;;;;4966708;28;20046;-37
2023/07/05 03:32:10;;;;;;;10.88;5.10;;;15.20;99.90;;;;;;4980550;28;20179;-36
2023/07/05 03:34:35;;;;;;;11.80;5.65;;;15.20;99.90;;;;;;4965024;28;20049;-36
2023/07/05 03:37:01;;;;;;;7.45;4.25;;;15.20;99.90;;;;;;4967409;28;20393;-36
2023/07/05 03:39:27;;;;;;;10.25;4.40;;;15.20;99.90;;;;;;4971105;28;21243;-36
2023/07/05 03:41:52;;;;;;;7.45;4.20;;;15.20;99.90;;;;;;4972393;28;20042;-38
2023/07/05 03:44:21;;;;;;;9.73;4.30;;;15.20;99.90;;;;;;4968929;28;20424;-38
2023/07/05 03:46:49;;;;;;;7.47;3.50;;;15.30;99.90;;;;;;4986785;28;20050;-36
2023/07/05 03:49:15;;;;;;;7.00;3.30;;;15.30;99.90;;;;;;4988212;28;20053;-36
2023/07/05 03:51:40;;;;;;;5.22;2.58;;;15.30;99.90;;;;;;4986352;28;20065;-36
2023/07/05 03:54:06;;;;;;;9.10;3.45;;;15.30;99.90;;;;;;4970695;28;20054;-36
2023/07/05 03:56:35;;;;;;;4.50;2.45;;;15.30;99.90;;;;;;4975092;28;20421;-37
2023/07/05 03:59:01;;;;;;;6.50;2.53;;;15.30;99.90;;;;;;4971352;28;20496;-36
2023/07/05 04:01:28;;;;;;;5.05;2.53;;;15.30;99.90;;;;;;4980362;28;20061;-36
2023/07/05 04:04:00;;;;;;;3.42;1.30;;;15.30;99.90;;;;;;4961736;28;20065;-35
2023/07/05 04:06:31;;;;;;;4.05;2.03;;;15.40;99.90;;;;;;4965462;28;20047;-37
2023/07/05 04:08:57;;;;;;;3.50;1.47;;;15.30;99.90;;;;;;4969990;28;20050;-37
2023/07/05 04:11:23;;;;;;;3.47;1.50;;;15.40;99.90;;;;;;4965616;28;21310;-37
2023/07/05 04:13:53;;;;;;;5.10;1.75;;;15.30;99.90;;;;;;4985198;28;20077;-37
2023/07/05 04:16:20;;;;;;;3.78;1.55;;;15.30;99.90;;;;;;4986568;28;20061;-36
2023/07/05 04:18:49;;;;;;;3.78;1.40;;;15.20;99.90;;;;;;4975686;28;20680;-36
2023/07/05 04:21:16;;;;;;;2.97;1.10;;;15.10;99.90;;;;;;4968712;28;20093;-36
2023/07/05 04:23:41;;;;;;;8.57;2.83;;;14.90;99.90;;;;;;4948721;28;20590;-36
2023/07/05 04:26:13;;;;;;;3.72;1.65;;;14.80;99.90;;;;;;4971840;28;20145;-36
2023/07/05 04:28:41;;;;;;;4.75;1.63;;;14.60;99.90;;;;;;4988955;28;20196;-36
2023/07/05 04:31:17;;;;;;;4.93;2.08;;;14.50;99.90;;;;;;4968221;28;20065;-36
2023/07/05 04:33:43;;;;;;;3.10;1.65;;;14.50;99.90;;;;;;4966006;28;20055;-35
2023/07/05 04:36:09;;;;;;;5.32;1.83;;;14.40;99.90;;;;;;4964113;28;20058;-36
2023/07/05 04:38:35;;;;;;;3.72;1.95;;;14.30;99.90;;;;;;4977601;28;20050;-36
2023/07/05 04:41:00;;;;;;;3.28;1.67;;;14.30;99.90;;;;;;4963302;28;20047;-36
2023/07/05 04:43:27;;;;;;;3.70;1.77;;;14.30;99.90;;;;;;4979043;28;20054;-36
2023/07/05 04:45:55;;;;;;;4.90;2.13;;;14.30;99.90;;;;;;4976222;28;20065;-36
2023/07/05 04:48:23;;;;;;;5.47;2.15;;;14.30;99.90;;;;;;4979178;28;20110;-36
2023/07/05 04:50:52;;;;;;;4.68;2.20;;;14.30;99.90;;;;;;4968105;28;20039;-36
2023/07/05 04:53:22;;;;;;;5.47;2.35;;;14.30;99.90;;;;;;4969233;28;20509;-36
2023/07/05 04:55:49;;;;;;;5.30;2.42;;;14.30;99.90;;;;;;4967204;28;20059;-36
2023/07/05 04:58:15;;;;;;;3.83;1.85;;;14.30;99.90;;;;;;4978772;28;20610;-37
2023/07/05 05:00:49;;;;;;;4.13;2.10;;;14.20;99.90;;;;;;4968044;28;20073;-36
2023/07/05 05:03:23;;;;;;;3.85;1.75;;;14.20;99.90;;;;;;4978870;28;20496;-37
2023/07/05 05:05:52;;;;;;;4.10;2.13;;;14.30;99.90;;;;;;4985971;28;20511;-37
2023/07/05 05:08:19;;;;;;;3.03;1.38;;;14.30;99.90;;;;;;4982079;28;20076;-37
2023/07/05 05:10:48;;;;;;;5.85;2.38;;;14.30;99.90;;;;;;4981220;28;20046;-37
2023/07/05 05:13:14;;;;;;;7.07;2.00;;;14.30;99.90;;;;;;4968653;28;20070;-37
2023/07/05 05:15:40;;;;;;;3.28;1.80;;;14.40;99.90;;;;;;4965823;28;20078;-37
2023/07/05 05:18:07;;;;;;;3.47;1.77;;;14.40;99.90;;;;;;4986653;28;20054;-37
2023/07/05 05:20:33;;;;;;;5.32;2.00;;;14.40;99.90;;;;;;4985554;28;20046;-37
2023/07/05 05:22:59;;;;;;;5.55;2.00;;;14.50;99.90;;;;;;4984673;28;20061;-37
2023/07/05 05:25:26;;;;;;;4.55;1.67;;;14.50;99.90;;;;;;4978497;28;20105;-36
2023/07/05 05:27:52;;;;;;;2.85;1.50;;;14.50;99.90;;;;;;4947982;28;20461;-37
2023/07/05 05:30:17;;;;;;;4.82;1.90;;;14.50;99.90;;;;;;4965653;28;20050;-37
2023/07/05 05:32:45;;;;;;;3.38;1.52;;;14.50;99.90;;;;;;4962966;28;20110;-37
2023/07/05 05:35:11;;;;;;;5.20;1.80;;;14.50;99.90;;;;;;4962720;28;20065;-37
2023/07/05 05:37:36;;;;;;;3.95;1.80;;;14.50;99.90;;;;;;4967354;28;20065;-38
2023/07/05 05:40:02;;;;;;;3.65;1.63;;;14.50;99.90;;;;;;4971161;28;20050;-37
2023/07/05 05:42:29;;;;;;;3.88;1.70;;;14.50;99.90;;;;;;4968310;28;20074;-37
2023/07/05 05:44:55;;;;;;;5.53;1.75;;;14.60;99.90;;;;;;4957319;28;20055;-37
2023/07/05 05:47:21;;;;;;;5.18;1.73;;;14.60;99.90;;;;;;4959621;28;20141;-37
2023/07/05 05:49:46;;;;;;;4.70;1.20;;;14.60;99.90;;;;;;4969893;28;20054;-37
2023/07/05 05:52:12;;;;;;;3.72;1.42;;;14.70;99.90;;;;;;4969293;28;20051;-37
2023/07/05 05:54:37;;;;;;;3.63;1.70;;;14.70;99.90;;;;;;4977646;28;20109;-37
2023/07/05 05:57:03;;;;;;;3.75;1.42;;;14.70;99.90;;;;;;4981231;28;20050;-37
2023/07/05 05:59:29;;;;;;;5.18;1.65;;;14.80;99.90;;;;;;4981710;28;20051;-37
2023/07/05 06:01:55;;;;;;;4.43;1.70;;;15.00;99.90;;;;;;4964577;28;20055;-37
2023/07/05 06:04:20;;;;;;;3.35;1.35;;;15.10;99.90;;;;;;4958005;28;20433;-37
2023/07/05 06:06:46;;;;;;;2.35;1.17;;;15.10;99.90;;;;;;4946038;28;20049;-37
2023/07/05 06:09:14;;;;;;;3.35;1.60;;;15.00;99.90;;;;;;4959267;28;20049;-37
2023/07/05 06:11:40;;;;;;;3.28;1.50;;;14.90;99.90;;;;;;4977517;28;20499;-37
2023/07/05 06:14:08;;;;;;;2.97;1.33;;;14.80;99.90;;;;;;4976216;28;20061;-37
2023/07/05 06:16:33;;;;;;;4.75;1.50;;;14.80;99.90;;;;;;4977094;28;20049;-37
2023/07/05 06:18:59;;;;;;;3.45;1.48;;;14.80;99.90;;;;;;4960931;28;20046;-36
2023/07/05 06:21:25;;;;;;;3.97;1.50;;;14.80;99.90;;;;;;4958923;28;20145;-36
2023/07/05 06:23:51;;;;;;;3.55;1.63;;;14.80;99.90;;;;;;4962280;28;20479;-36
2023/07/05 06:26:18;;;;;;;4.93;2.17;;;14.80;99.90;;;;;;4962989;28;20042;-37
2023/07/05 06:28:44;;;;;;;6.15;1.33;;;14.90;99.90;;;;;;4956375;28;20066;-36
2023/07/05 06:31:11;;;;;;;3.17;1.40;;;14.90;99.90;;;;;;4958904;28;20488;-38
2023/07/05 06:33:37;;;;;;;4.82;1.30;;;15.00;99.90;;;;;;4961195;28;20086;-37
2023/07/05 06:36:06;;;;;;;6.15;1.63;;;15.00;99.90;;;;;;4954050;28;20117;-35
2023/07/05 06:38:31;;;;;;;5.32;1.63;;;15.10;99.90;;;;;;4969900;28;20074;-36
2023/07/05 06:40:57;;;;;;;3.15;1.25;;;15.10;99.90;;;;;;4954691;28;20548;-36
2023/07/05 06:43:24;;;;;;;2.38;1.20;;;15.20;99.90;;;;;;4955405;28;20062;-36
2023/07/05 06:45:51;;;;;;;3.80;1.20;;;15.20;99.90;;;;;;4942766;28;20054;-36
2023/07/05 06:48:17;;;;;;;6.45;1.33;;;15.20;99.90;;;;;;4955651;28;20461;-36
2023/07/05 06:50:43;;;;;;;3.15;1.30;;;15.20;99.90;;;;;;4961638;28;20065;-36
2023/07/05 06:53:10;;;;;;;2.50;0.90;;;15.20;99.90;;;;;;4954561;28;20051;-36
2023/07/05 06:55:40;;;;;;;4.47;1.20;;;15.20;99.90;;;;;;4955260;28;20055;-36
2023/07/05 06:58:06;;;;;;;4.63;1.25;;;15.20;99.90;;;;;;4967848;28;20158;-36
2023/07/05 07:00:31;;;;;;;3.15;1.02;;;15.00;99.90;;;;;;4964535;28;20051;-36
2023/07/05 07:02:57;;;;;;;1.90;0.95;;;14.90;99.90;;;;;;4957730;28;20055;-36
2023/07/05 07:05:23;;;;;;;2.22;1.00;;;14.80;99.90;;;;;;4963470;28;20117;-36
2023/07/05 07:07:50;;;;;;;3.03;1.00;;;14.60;99.90;;;;;;4959019;28;20062;-36
2023/07/05 07:10:16;;;;;;;3.95;1.13;;;14.50;99.90;;;;;;4950814;28;20078;-36
2023/07/05 07:12:42;;;;;;;3.38;1.42;;;14.30;99.90;;;;;;4960851;28;20142;-36
2023/07/05 07:15:08;;;;;;;8.40;1.42;;;14.20;99.90;;;;;;4958955;28;20411;-37
2023/07/05 07:17:33;;;;;;;3.75;0.73;;;14.10;99.90;;;;;;4960264;28;20046;-39
2023/07/05 07:19:59;;;;;;;2.28;0.55;;;13.90;99.90;;;;;;4954738;28;20137;-37
2023/07/05 07:22:25;;;;;;;2.15;0.82;;;13.70;99.90;;;;;;4957742;28;21342;-38
2023/07/05 07:24:51;;;;;;;1.70;0.50;;;13.30;99.90;;;;;;4934182;28;20055;-37
2023/07/05 07:27:17;;;;;;;2.65;0.50;;;13.10;99.90;;;;;;4956214;28;20440;-37
2023/07/05 07:29:44;;;;;;;1.38;0.45;;;13.00;99.90;;;;;;4958935;28;20046;-37
2023/07/05 07:32:10;;;;;;;1.27;0.30;;;12.80;99.90;;;;;;4959553;28;20066;-37
2023/07/05 07:34:36;;;;;;;0.70;0.20;;;12.70;99.90;;;;;;4976378;28;20050;-38
2023/07/05 07:37:02;;;;;;;1.90;0.40;;;12.50;99.90;;;;;;4957831;28;20078;-37
2023/07/05 07:39:29;;;;;;;1.80;0.30;;;12.40;99.90;;;;;;4963273;28;20058;-37
2023/07/05 07:41:56;;;;;;;0.98;0.30;;;12.30;99.90;;;;;;4965895;28;20050;-37
2023/07/05 07:44:22;;;;;;;2.72;0.50;;;12.30;99.90;;;;;;4965366;28;20508;-37
2023/07/05 07:46:47;;;;;;;0.90;0.30;;;12.30;99.90;;;;;;4978160;28;20055;-38
2023/07/05 07:49:13;;;;;;;0.93;0.20;;;12.30;99.90;;;;;;4982154;28;20420;-38
2023/07/05 07:51:44;;;;;;;2.08;0.43;;;12.30;99.90;;;;;;4966697;28;20508;-38
2023/07/05 07:54:16;;;;;;;0.98;0.20;;;12.30;99.90;;;;;;4964140;28;20178;-37
2023/07/05 07:56:44;;;;;;;1.10;0.30;;;12.40;99.90;;;;;;4964186;28;20050;-37
2023/07/05 07:59:10;;;;;;;0.70;0.20;;;12.30;99.90;;;;;;4958367;28;20423;-38
2023/07/05 08:01:37;;;;;;;0.95;0.88;;;12.40;99.90;;;;;;4968089;28;20097;-37
2023/07/05 08:04:05;;;;;;;2.58;0.28;;;12.40;99.90;;;;;;4986562;28;20054;-38
2023/07/05 08:06:36;;;;;;;2.00;0.30;;;12.40;99.90;;;;;;4970466;28;21039;-37
2023/07/05 08:09:06;;;;;;;0.90;0.20;;;12.40;99.90;;;;;;4972856;28;20057;-37
2023/07/05 08:11:33;;;;;;;3.05;1.38;;;12.30;99.90;;;;;;4975821;28;20044;-37
2023/07/05 08:13:59;;;;;;;2.15;0.45;;;12.30;99.90;;;;;;4983527;28;20054;-38
2023/07/05 08:16:25;;;;;;;3.10;0.45;;;12.30;99.90;;;;;;4986676;28;20113;-37
2023/07/05 08:18:51;;;;;;;1.05;0.30;;;12.30;99.90;;;;;;4985439;28;20504;-37
2023/07/05 08:21:17;;;;;;;2.67;1.23;;;12.20;99.90;;;;;;4975805;28;20055;-37
2023/07/05 08:23:44;;;;;;;1.17;0.30;;;12.10;99.90;;;;;;4968055;28;20481;-37
2023/07/05 08:26:11;;;;;;;2.33;0.40;;;11.90;99.90;;;;;;4969683;28;21762;-37
2023/07/05 08:28:37;;;;;;;2.10;0.40;;;11.80;99.90;;;;;;4976214;28;20047;-37
2023/07/05 08:31:04;;;;;;;3.25;0.60;;;11.70;99.90;;;;;;4968939;28;20054;-37
2023/07/05 08:33:31;;;;;;;2.33;0.32;;;11.70;99.90;;;;;;4965259;28;20062;-37
2023/07/05 08:36:12;;;;;;;3.63;0.80;;;11.70;99.90;;;;;;4966774;28;20105;-37
2023/07/05 08:38:39;;;;;;;2.47;0.70;;;11.70;99.90;;;;;;4967492;28;20055;-37
2023/07/05 08:41:27;;;;;;;6.10;0.95;;;11.80;99.90;;;;;;4960488;28;20066;-37
2023/07/05 08:44:10;;;;;;;3.42;0.70;;;11.80;99.90;;;;;;4962976;28;20125;-37
2023/07/05 08:46:37;;;;;;;;;;;11.80;99.90;;;;;;4963454;28;20051;-36
2023/07/05 08:49:16;;;;;;;5.13;1.15;;;11.80;99.90;;;;;;4964786;28;19949;-36
2023/07/05 08:51:42;;;;;;;6.05;0.57;;;11.80;99.90;;;;;;4952333;28;20050;-37
2023/07/05 08:54:11;;;;;;;5.85;1.25;;;11.80;99.90;;;;;;4972595;28;20065;-36
2023/07/05 08:56:46;;;;;;;5.90;1.05;;;11.80;99.90;;;;;;4965799;28;20497;-36
2023/07/05 08:59:21;;;;;;;6.38;1.23;;;11.90;99.90;;;;;;4966323;28;20500;-35
2023/07/05 09:01:51;;;;;;;8.38;1.30;;;11.90;99.90;;;;;;4961702;28;20065;-35
2023/07/05 09:04:29;;;;;;;10.15;1.30;;;11.90;99.90;;;;;;4967711;28;20050;-36
2023/07/05 09:07:32;;;;;;;9.02;1.33;;;11.80;99.90;;;;;;4984159;28;20077;-36
2023/07/05 09:10:04;;;;;;;;;;;11.80;99.90;;;;;;4967176;28;20086;-37
2023/07/05 09:12:42;;;;;;;12.10;2.08;;;11.80;99.90;;;;;;4957086;28;19988;-37
2023/07/05 09:15:23;;;;;;;7.57;1.80;;;11.70;99.90;;;;;;4969493;28;20646;-36
2023/07/05 09:18:00;;;;;;;9.90;1.58;;;11.80;99.90;;;;;;4963706;28;20047;-37
2023/07/05 09:20:29;;;;;;;8.80;1.55;;;11.80;99.90;;;;;;4958426;28;20057;-37
2023/07/05 09:22:57;;;;;;;8.85;1.23;;;11.80;99.90;;;;;;4958010;28;20397;-37
2023/07/05 09:25:25;;;;;;;6.60;1.10;;;11.80;99.90;;;;;;4966910;28;20145;-37
2023/07/05 09:28:07;;;;;;;10.40;1.10;;;11.80;99.90;;;;;;4961696;28;20058;-37
2023/07/05 09:30:34;;;;;;;10.85;1.38;;;11.90;99.90;;;;;;4968836;28;20498;-36
2023/07/05 09:33:10;;;;;;;8.88;2.00;;;11.90;99.90;;;;;;4960932;28;20050;-36
2023/07/05 09:35:37;;;;;;;7.35;1.20;;;11.90;99.90;;;;;;4964333;28;20046;-36
2023/07/05 09:38:15;;;;;;;6.57;1.17;;;11.90;99.90;;;;;;4967773;28;20065;-36
2023/07/05 09:40:47;;;;;;;4.68;1.20;;;11.90;99.90;;;;;;4968702;28;20505;-37
2023/07/05 09:43:24;;;;;;;3.30;0.68;;;12.00;99.90;;;;;;4957202;28;20326;-36
2023/07/05 09:45:50;;;;;;;6.53;1.05;;;12.00;99.90;;;;;;4952819;28;20057;-36
2023/07/05 09:48:17;;;;;;;9.30;1.20;;;11.90;99.90;;;;;;4969603;28;20050;-36
2023/07/05 09:50:52;;;;;;;6.28;1.40;;;12.00;99.90;;;;;;4962928;28;20082;-36
2023/07/05 09:53:39;;;;;;;7.32;1.10;;;11.90;99.90;;;;;;4979595;28;20069;-36
2023/07/05 09:56:11;;;;;;;4.38;0.93;;;11.90;99.90;;;;;;4977386;28;20053;-36
2023/07/05 09:58:38;;;;;;;;;;;12.00;99.90;;;;;;4960987;28;20113;-38
2023/07/05 10:01:06;;;;;;;6.30;0.80;;;11.90;99.90;;;;;;4972969;28;19922;-36
2023/07/05 10:03:37;;;;;;;7.45;1.30;;;11.90;99.90;;;;;;4954728;28;20050;-36
2023/07/05 10:06:08;;;;;;;6.15;1.00;;;11.90;99.90;;;;;;4950432;28;20133;-37
2023/07/05 10:08:50;;;;;;;4.82;1.13;;;11.90;99.90;;;;;;4957689;28;20062;-35
2023/07/05 10:11:41;;;;;;;5.30;1.00;;;12.00;99.90;;;;;;4958533;28;20059;-36
2023/07/05 10:14:07;;;;;;;6.53;1.00;;;12.00;99.90;;;;;;4961714;28;20090;-37
2023/07/05 10:17:05;;;;;;;6.80;1.30;;;11.90;99.90;;;;;;4962137;28;20128;-36
2023/07/05 10:19:32;;;;;;;9.07;1.10;;;11.90;99.90;;;;;;4973741;28;20080;-37
2023/07/05 10:22:03;;;;;;;7.25;1.20;;;12.00;99.90;;;;;;4967812;28;20515;-36
2023/07/05 10:24:33;;;;;;;7.93;1.83;;;12.00;99.90;;;;;;4954905;28;20175;-36
2023/07/05 10:27:27;;;;;;;3.08;1.10;;;12.00;99.90;;;;;;4958396;28;20054;-38
2023/07/05 10:30:01;;;;;;;5.60;1.63;;;12.00;99.90;;;;;;4978250;28;20051;-38
2023/07/05 10:32:29;;;;;;;8.40;1.00;;;11.90;99.90;;;;;;4979001;28;20124;-37
2023/07/05 10:34:55;;;;;;;8.20;1.20;;;11.90;99.90;;;;;;4968227;28;20519;-36
2023/07/05 10:37:35;;;;;;;6.88;1.23;;;11.90;99.90;;;;;;4962386;28;20047;-38
2023/07/05 10:40:09;;;;;;;4.47;1.00;;;11.90;99.90;;;;;;4971125;28;20117;-37
2023/07/05 10:42:38;;;;;;;8.45;1.60;;;11.90;99.90;;;;;;4959631;28;20050;-38
2023/07/05 10:45:04;;;;;;;6.68;1.38;;;11.90;99.90;;;;;;4982260;28;20467;-38
2023/07/05 10:47:31;;;;;;;7.28;1.40;;;11.90;99.90;;;;;;4987301;28;20088;-38
2023/07/05 10:50:05;;;;;;;11.60;1.50;;;11.90;99.90;;;;;;4972076;28;20050;-38
2023/07/05 10:52:36;;;;;;;6.10;1.02;;;11.90;99.90;;;;;;4959617;28;20058;-37
2023/07/05 10:55:13;;;;;;;8.23;1.55;;;12.00;99.90;;;;;;4937131;28;20077;-38
2023/07/05 10:57:52;;;;;;;10.63;1.23;;;12.00;99.90;;;;;;4957478;28;20043;-38
2023/07/05 11:00:28;;;;;;;4.68;1.52;;;11.80;99.90;;;;;;4958084;28;20493;-37
2023/07/05 11:03:09;;;;;;;6.65;0.88;;;11.80;99.90;;;;;;4939237;28;20536;-37
2023/07/05 11:05:41;;;;;;;5.93;0.70;;;11.70;99.90;;;;;;4959659;28;20585;-39
2023/07/05 11:08:19;;;;;;;6.60;1.02;;;11.70;99.90;;;;;;4945486;28;20047;-38
2023/07/05 11:10:47;;;;;;;9.55;0.95;;;11.70;99.90;;;;;;4946074;28;20666;-39
2023/07/05 11:13:18;;;;;;;3.97;1.00;;;11.70;99.90;;;;;;4955070;28;20493;-38
2023/07/05 11:15:45;;;;;;;7.90;1.00;;;11.80;99.90;;;;;;4945542;28;20505;-38
2023/07/05 11:18:20;;;;;;;5.50;2.30;;;11.80;99.90;;;;;;4946698;28;20142;-39
2023/07/05 11:20:54;;;;;;;6.85;1.15;;;11.80;99.90;;;;;;4945002;28;20177;-38
2023/07/05 11:23:42;;;;;;;3.28;1.20;;;11.80;99.90;;;;;;4945020;28;20066;-38
2023/07/05 11:26:08;;;;;;;2.10;0.80;;;11.70;99.90;;;;;;4962914;28;20626;-37
2023/07/05 11:28:36;;;;;;;2.75;0.77;;;11.70;99.90;;;;;;4934028;28;20089;-38
2023/07/05 11:31:24;;;;;;;2.65;0.68;;;11.70;99.90;;;;;;4956518;28;20393;-39
2023/07/05 11:34:21;;;;;;;4.00;0.93;;;11.70;99.90;;;;;;4901379;28;20055;-38
2023/07/05 11:37:10;;;;;;;7.60;1.08;;;11.80;99.90;;;;;;4961903;28;20085;-39
2023/07/05 11:39:36;;;;;;;9.63;2.25;;;11.80;99.90;;;;;;4944914;28;20062;-39
2023/07/05 11:42:16;;;;;;;3.47;0.90;;;11.90;99.90;;;;;;4965698;28;20054;-38
2023/07/05 11:44:47;;;;;;;9.43;1.27;;;12.00;99.90;;;;;;4948598;28;20054;-38
2023/07/05 11:47:22;;;;;;;6.20;1.10;;;12.10;99.90;;;;;;4939010;28;20141;-38
2023/07/05 11:49:52;;;;;;;3.92;0.90;;;12.10;99.90;;;;;;4946837;28;20138;-39
2023/07/05 11:52:24;;;;;;;5.82;1.27;;;12.10;99.90;;;;;;4947809;28;20106;-38
2023/07/05 11:54:53;;;;;;;7.65;1.10;;;12.10;99.90;;;;;;4967996;28;20053;-38
2023/07/05 11:57:21;;;;;;;4.50;1.05;;;12.00;99.90;;;;;;4970938;28;21235;-38
2023/07/05 12:00:34;;;;;;;5.90;1.75;;;12.00;99.90;;;;;;4963433;28;20078;-36
2023/07/05 12:03:06;;;;;;;7.32;1.70;;;12.00;99.90;;;;;;4962122;28;20129;-39
2023/07/05 12:05:33;;;;;;;5.97;1.05;;;12.00;99.90;;;;;;4967822;28;20046;-37
2023/07/05 12:08:08;;;;;;;6.05;1.42;;;12.10;99.90;;;;;;4964718;28;20050;-38
2023/07/05 12:10:35;;;;;;;10.48;1.30;;;12.20;99.90;;;;;;4967514;28;20053;-37
2023/07/05 12:13:07;;;;;;;4.25;1.40;;;12.30;99.90;;;;;;4960648;28;20065;-37
2023/07/05 12:15:37;;;;;;;8.07;1.30;;;12.30;99.90;;;;;;4962705;28;20109;-38
2023/07/05 12:18:04;;;;;;;5.45;1.42;;;12.30;99.90;;;;;;4957508;28;20673;-38
2023/07/05 12:20:42;;;;;;;8.07;1.63;;;12.30;99.90;;;;;;4978167;28;20058;-37
2023/07/05 12:23:16;;;;;;;7.72;1.90;;;12.30;99.90;;;;;;4978937;28;20054;-37
2023/07/05 12:25:50;;;;;;;7.93;1.30;;;12.40;99.90;;;;;;4970270;28;20043;-37
2023/07/05 12:28:27;;;;;;;7.97;1.60;;;12.40;99.90;;;;;;4959375;28;20133;-37
2023/07/05 12:31:05;;;;;;;8.75;1.73;;;12.50;99.90;;;;;;4955150;28;20055;-38
2023/07/05 12:33:36;;;;;;;9.40;1.52;;;12.70;99.90;;;;;;4968074;28;20063;-37
2023/07/05 12:36:16;;;;;;;10.27;2.13;;;12.80;99.90;;;;;;4959318;28;20082;-37
2023/07/05 12:38:45;;;;;;;7.70;1.70;;;12.60;99.90;;;;;;4983323;28;20061;-37
2023/07/05 12:41:15;;;;;;;8.38;1.63;;;12.70;99.90;;;;;;4963434;28;20083;-38
2023/07/05 12:43:41;;;;;;;8.27;2.08;;;12.80;99.90;;;;;;4980070;28;20137;-36
2023/07/05 12:46:22;;;;;;;7.38;2.10;;;12.90;99.90;;;;;;4965490;28;20049;-36
2023/07/05 12:48:51;;;;;;;7.43;1.23;;;13.00;99.90;;;;;;4985818;28;20050;-36
2023/07/05 12:51:20;;;;;;;5.55;1.48;;;13.00;99.90;;;;;;4974070;28;20047;-36
2023/07/05 12:53:47;;;;;;;8.27;1.45;;;13.00;99.90;;;;;;4964175;28;20124;-36
2023/07/05 12:56:17;;;;;;;8.40;1.67;;;13.00;99.90;;;;;;4966022;28;20093;-36
2023/07/05 12:58:53;;;;;;;9.65;1.77;;;13.00;99.90;;;;;;4962283;28;20078;-36